sensor_id;sensor_type;location;lat;lon;timestamp;pressure;altitude;pressure_sealevel;temperature;humidity
10700;BME280;5401;41.986;21.452;2023-06-10T00:00:55;97960.16;;;21.48;70.24
10700;BME280;5401;41.986;21.452;2023-06-10T00:03:23;97951.47;;;21.46;69.87
10700;BME280;5401;41.986;21.452;2023-06-10T00:05:51;97955.00;;;21.47;70.50
10700;BME280;5401;41.986;21.452;2023-06-10T00:08:18;97959.38;;;21.48;70.71
10700;BME280;5401;41.986;21.452;2023-06-10T00:10:46;97957.44;;;21.48;70.91
10700;BME280;5401;41.986;21.452;2023-06-10T00:13:15;97952.59;;;21.45;70.43
10700;BME280;5401;41.986;21.452;2023-06-10T00:15:43;97957.50;;;21.43;70.32
10700;BME280;5401;41.986;21.452;2023-06-10T00:18:12;97955.34;;;21.40;70.81
10700;BME280;5401;41.986;21.452;2023-06-10T00:20:39;97947.22;;;21.35;70.97
10700;BME280;5401;41.986;21.452;2023-06-10T00:23:08;97948.59;;;21.33;71.05
10700;BME280;5401;41.986;21.452;2023-06-10T00:25:36;97945.88;;;21.33;70.78
10700;BME280;5401;41.986;21.452;2023-06-10T00:28:03;97943.81;;;21.25;71.37
10700;BME280;5401;41.986;21.452;2023-06-10T00:30:33;97950.94;;;21.21;71.58
10700;BME280;5401;41.986;21.452;2023-06-10T00:33:00;97930.16;;;21.02;71.64
10700;BME280;5401;41.986;21.452;2023-06-10T00:35:28;97947.16;;;21.17;71.23
10700;BME280;5401;41.986;21.452;2023-06-10T00:37:55;97950.97;;;21.16;71.71
10700;BME280;5401;41.986;21.452;2023-06-10T00:40:23;97948.84;;;21.13;71.78
10700;BME280;5401;41.986;21.452;2023-06-10T00:42:51;97952.88;;;21.15;71.37
10700;BME280;5401;41.986;21.452;2023-06-10T00:45:18;97951.25;;;21.14;71.49
10700;BME280;5401;41.986;21.452;2023-06-10T00:47:47;97949.38;;;21.15;71.34
10700;BME280;5401;41.986;21.452;2023-06-10T00:50:15;97942.03;;;21.10;71.76
10700;BME280;5401;41.986;21.452;2023-06-10T00:52:42;97939.63;;;21.09;71.72
10700;BME280;5401;41.986;21.452;2023-06-10T00:55:12;97935.34;;;21.03;71.44
10700;BME280;5401;41.986;21.452;2023-06-10T00:57:40;97932.88;;;21.02;71.80
10700;BME280;5401;41.986;21.452;2023-06-10T01:00:11;97927.19;;;20.98;71.50
10700;BME280;5401;41.986;21.452;2023-06-10T01:02:39;97939.13;;;21.02;71.65
10700;BME280;5401;41.986;21.452;2023-06-10T01:05:08;97934.00;;;21.01;71.64
10700;BME280;5401;41.986;21.452;2023-06-10T01:07:40;97934.56;;;20.98;71.73
10700;BME280;5401;41.986;21.452;2023-06-10T01:10:18;97935.69;;;20.97;71.69
10700;BME280;5401;41.986;21.452;2023-06-10T01:12:53;97935.16;;;20.95;71.74
10700;BME280;5401;41.986;21.452;2023-06-10T01:15:22;97933.28;;;20.90;72.09
10700;BME280;5401;41.986;21.452;2023-06-10T01:17:54;97934.13;;;20.86;72.12
10700;BME280;5401;41.986;21.452;2023-06-10T01:20:25;97924.94;;;20.82;72.04
10700;BME280;5401;41.986;21.452;2023-06-10T01:22:56;97927.44;;;20.78;72.30
10700;BME280;5401;41.986;21.452;2023-06-10T01:25:24;97935.88;;;20.77;72.55
10700;BME280;5401;41.986;21.452;2023-06-10T01:27:59;97927.47;;;20.74;72.45
10700;BME280;5401;41.986;21.452;2023-06-10T01:30:33;97925.59;;;20.69;72.54
10700;BME280;5401;41.986;21.452;2023-06-10T01:33:06;97930.53;;;20.67;72.63
10700;BME280;5401;41.986;21.452;2023-06-10T01:35:37;97898.28;;;20.51;72.69
10700;BME280;5401;41.986;21.452;2023-06-10T01:38:07;97919.69;;;20.57;72.86
10700;BME280;5401;41.986;21.452;2023-06-10T01:40:35;97921.63;;;20.52;72.80
10700;BME280;5401;41.986;21.452;2023-06-10T01:43:03;97924.44;;;20.42;73.35
10700;BME280;5401;41.986;21.452;2023-06-10T01:45:31;97927.50;;;20.36;73.60
10700;BME280;5401;41.986;21.452;2023-06-10T01:47:59;97927.56;;;20.26;73.88
10700;BME280;5401;41.986;21.452;2023-06-10T01:50:28;97931.41;;;20.25;74.08
10700;BME280;5401;41.986;21.452;2023-06-10T01:52:57;97918.44;;;20.12;74.20
10700;BME280;5401;41.986;21.452;2023-06-10T01:55:26;97928.19;;;20.18;74.51
10700;BME280;5401;41.986;21.452;2023-06-10T01:57:53;97928.19;;;20.18;74.83
10700;BME280;5401;41.986;21.452;2023-06-10T02:00:21;97931.41;;;20.25;74.46
10700;BME280;5401;41.986;21.452;2023-06-10T02:02:48;97938.16;;;20.27;74.63
10700;BME280;5401;41.986;21.452;2023-06-10T02:05:16;97935.16;;;20.29;74.60
10700;BME280;5401;41.986;21.452;2023-06-10T02:07:43;97937.09;;;20.23;75.07
10700;BME280;5401;41.986;21.452;2023-06-10T02:10:11;97936.03;;;20.19;74.93
10700;BME280;5401;41.986;21.452;2023-06-10T02:12:42;97934.47;;;20.13;75.06
10700;BME280;5401;41.986;21.452;2023-06-10T02:15:09;97933.66;;;20.13;75.33
10700;BME280;5401;41.986;21.452;2023-06-10T02:17:37;97937.19;;;20.13;75.46
10700;BME280;5401;41.986;21.452;2023-06-10T02:20:05;97901.47;;;19.92;76.20
10700;BME280;5401;41.986;21.452;2023-06-10T02:22:34;97941.28;;;20.11;75.92
10700;BME280;5401;41.986;21.452;2023-06-10T02:25:02;97935.31;;;20.09;75.78
10700;BME280;5401;41.986;21.452;2023-06-10T02:27:30;97934.84;;;20.02;75.91
10700;BME280;5401;41.986;21.452;2023-06-10T02:30:01;97924.56;;;19.89;76.54
10700;BME280;5401;41.986;21.452;2023-06-10T02:32:28;97934.03;;;19.97;76.16
10700;BME280;5401;41.986;21.452;2023-06-10T02:34:56;97938.13;;;19.94;76.72
10700;BME280;5401;41.986;21.452;2023-06-10T02:37:26;97932.75;;;19.84;76.62
10700;BME280;5401;41.986;21.452;2023-06-10T02:39:53;97934.69;;;19.84;76.90
10700;BME280;5401;41.986;21.452;2023-06-10T02:42:21;97934.69;;;19.84;76.87
10700;BME280;5401;41.986;21.452;2023-06-10T02:44:48;97937.63;;;19.87;76.82
10700;BME280;5401;41.986;21.452;2023-06-10T02:47:17;97935.44;;;19.89;77.09
10700;BME280;5401;41.986;21.452;2023-06-10T02:49:45;97929.72;;;19.91;77.14
10700;BME280;5401;41.986;21.452;2023-06-10T02:52:12;97937.59;;;19.92;77.25
10700;BME280;5401;41.986;21.452;2023-06-10T02:54:39;97940.31;;;19.92;77.03
10700;BME280;5401;41.986;21.452;2023-06-10T02:57:07;97938.69;;;19.91;77.36
10700;BME280;5401;41.986;21.452;2023-06-10T02:59:36;97943.91;;;19.83;77.40
10700;BME280;5401;41.986;21.452;2023-06-10T03:02:04;97941.75;;;19.75;77.46
10700;BME280;5401;41.986;21.452;2023-06-10T03:04:33;97937.41;;;19.69;77.69
10700;BME280;5401;41.986;21.452;2023-06-10T03:07:00;97940.44;;;19.67;77.67
10700;BME280;5401;41.986;21.452;2023-06-10T03:09:29;97944.22;;;19.66;78.08
10700;BME280;5401;41.986;21.452;2023-06-10T03:11:57;97941.03;;;19.60;78.29
10700;BME280;5401;41.986;21.452;2023-06-10T03:14:25;97942.66;;;19.56;78.22
10700;BME280;5401;41.986;21.452;2023-06-10T03:16:52;97936.72;;;19.49;78.44
10700;BME280;5401;41.986;21.452;2023-06-10T03:19:20;97936.69;;;19.54;79.04
10700;BME280;5401;41.986;21.452;2023-06-10T03:22:06;97940.44;;;19.63;78.68
10700;BME280;5401;41.986;21.452;2023-06-10T03:24:34;97954.41;;;19.99;78.08
10700;BME280;5401;41.986;21.452;2023-06-10T03:27:07;97942.19;;;20.35;77.88
10700;BME280;5401;41.986;21.452;2023-06-10T03:29:35;97952.31;;;20.90;76.40
10700;BME280;5401;41.986;21.452;2023-06-10T03:32:03;97925.94;;;21.14;74.85
10700;BME280;5401;41.986;21.452;2023-06-10T03:34:31;97957.22;;;21.86;73.66
10700;BME280;5401;41.986;21.452;2023-06-10T03:37:01;97951.56;;;22.37;72.35
10700;BME280;5401;41.986;21.452;2023-06-10T03:39:29;97966.97;;;22.96;70.71
10700;BME280;5401;41.986;21.452;2023-06-10T03:41:56;97933.16;;;23.37;68.71
10700;BME280;5401;41.986;21.452;2023-06-10T03:44:24;97940.91;;;23.97;67.23
10700;BME280;5401;41.986;21.452;2023-06-10T03:46:52;97945.00;;;24.56;65.66
10700;BME280;5401;41.986;21.452;2023-06-10T03:49:19;97948.28;;;25.10;64.45
10700;BME280;5401;41.986;21.452;2023-06-10T03:51:47;97952.53;;;25.54;63.09
10700;BME280;5401;41.986;21.452;2023-06-10T03:54:15;97958.84;;;26.02;62.05
10700;BME280;5401;41.986;21.452;2023-06-10T03:56:43;97952.94;;;26.67;60.43
10700;BME280;5401;41.986;21.452;2023-06-10T03:59:10;97956.41;;;27.26;59.19
10700;BME280;5401;41.986;21.452;2023-06-10T04:01:38;97955.38;;;27.84;57.64
10700;BME280;5401;41.986;21.452;2023-06-10T04:04:07;97947.00;;;28.30;56.58
10700;BME280;5401;41.986;21.452;2023-06-10T04:06:34;97959.69;;;28.71;55.78
10700;BME280;5401;41.986;21.452;2023-06-10T04:09:03;97956.50;;;29.33;54.65
10700;BME280;5401;41.986;21.452;2023-06-10T04:11:32;97949.44;;;29.80;53.34
10700;BME280;5401;41.986;21.452;2023-06-10T04:14:02;97945.97;;;29.82;52.69
10700;BME280;5401;41.986;21.452;2023-06-10T04:16:29;97950.94;;;30.24;52.51
10700;BME280;5401;41.986;21.452;2023-06-10T04:18:57;97954.44;;;30.60;51.63
10700;BME280;5401;41.986;21.452;2023-06-10T04:21:24;97954.97;;;31.32;50.52
10700;BME280;5401;41.986;21.452;2023-06-10T04:23:52;97961.59;;;31.58;48.93
10700;BME280;5401;41.986;21.452;2023-06-10T04:26:19;97967.16;;;31.73;48.52
10700;BME280;5401;41.986;21.452;2023-06-10T04:28:49;97966.69;;;32.17;48.15
10700;BME280;5401;41.986;21.452;2023-06-10T04:31:16;97960.53;;;32.58;47.49
10700;BME280;5401;41.986;21.452;2023-06-10T04:33:44;97966.03;;;32.73;46.83
10700;BME280;5401;41.986;21.452;2023-06-10T04:36:11;97965.97;;;32.88;46.10
10700;BME280;5401;41.986;21.452;2023-06-10T04:38:40;97961.97;;;33.05;45.88
10700;BME280;5401;41.986;21.452;2023-06-10T04:41:08;97964.09;;;33.11;45.65
10700;BME280;5401;41.986;21.452;2023-06-10T04:43:35;97959.81;;;32.95;45.76
10700;BME280;5401;41.986;21.452;2023-06-10T04:46:04;97964.50;;;32.75;45.79
10700;BME280;5401;41.986;21.452;2023-06-10T04:48:32;97967.88;;;32.84;45.41
10700;BME280;5401;41.986;21.452;2023-06-10T04:51:01;97970.06;;;32.94;45.29
10700;BME280;5401;41.986;21.452;2023-06-10T04:53:29;97970.09;;;33.13;45.32
10700;BME280;5401;41.986;21.452;2023-06-10T04:55:56;97965.06;;;33.37;45.07
10700;BME280;5401;41.986;21.452;2023-06-10T04:58:24;97962.72;;;33.39;45.00
10700;BME280;5401;41.986;21.452;2023-06-10T05:00:52;97963.78;;;33.35;44.50
10700;BME280;5401;41.986;21.452;2023-06-10T05:03:20;97960.72;;;33.40;44.63
10700;BME280;5401;41.986;21.452;2023-06-10T05:05:48;97968.31;;;33.65;44.59
10700;BME280;5401;41.986;21.452;2023-06-10T05:08:15;97963.78;;;33.98;44.12
10700;BME280;5401;41.986;21.452;2023-06-10T05:10:43;97959.38;;;34.19;43.35
10700;BME280;5401;41.986;21.452;2023-06-10T05:13:10;97967.69;;;34.41;42.78
10700;BME280;5401;41.986;21.452;2023-06-10T05:15:38;97962.31;;;34.55;42.80
10700;BME280;5401;41.986;21.452;2023-06-10T05:18:06;97962.50;;;34.40;42.30
10700;BME280;5401;41.986;21.452;2023-06-10T05:20:35;97964.91;;;34.41;42.46
10700;BME280;5401;41.986;21.452;2023-06-10T05:23:02;97966.66;;;34.53;42.31
10700;BME280;5401;41.986;21.452;2023-06-10T05:25:30;97968.19;;;34.24;42.03
10700;BME280;5401;41.986;21.452;2023-06-10T05:27:58;97953.75;;;33.71;42.46
10700;BME280;5401;41.986;21.452;2023-06-10T05:30:26;97957.97;;;33.21;42.89
10700;BME280;5401;41.986;21.452;2023-06-10T05:32:53;97958.25;;;32.78;43.27
10700;BME280;5401;41.986;21.452;2023-06-10T05:35:22;97956.50;;;32.37;43.73
10700;BME280;5401;41.986;21.452;2023-06-10T05:37:50;97947.94;;;31.80;43.98
10700;BME280;5401;41.986;21.452;2023-06-10T05:40:18;97947.00;;;31.30;45.15
10700;BME280;5401;41.986;21.452;2023-06-10T05:42:46;97952.59;;;30.91;44.90
10700;BME280;5401;41.986;21.452;2023-06-10T05:45:13;97955.25;;;30.49;46.05
10700;BME280;5401;41.986;21.452;2023-06-10T05:47:40;97957.81;;;30.07;46.25
10700;BME280;5401;41.986;21.452;2023-06-10T05:50:08;97955.88;;;29.72;46.85
10700;BME280;5401;41.986;21.452;2023-06-10T05:52:36;97952.16;;;29.56;46.73
10700;BME280;5401;41.986;21.452;2023-06-10T05:55:08;97956.41;;;29.53;46.86
10700;BME280;5401;41.986;21.452;2023-06-10T05:57:36;97958.41;;;29.33;47.15
10700;BME280;5401;41.986;21.452;2023-06-10T06:00:05;97954.75;;;28.97;47.56
10700;BME280;5401;41.986;21.452;2023-06-10T06:02:32;97957.06;;;28.74;47.83
10700;BME280;5401;41.986;21.452;2023-06-10T06:05:00;97942.09;;;28.55;48.12
10700;BME280;5401;41.986;21.452;2023-06-10T06:07:28;97955.81;;;28.43;47.89
10700;BME280;5401;41.986;21.452;2023-06-10T06:09:55;97959.09;;;28.17;48.38
10700;BME280;5401;41.986;21.452;2023-06-10T06:12:24;97956.72;;;28.07;48.69
10700;BME280;5401;41.986;21.452;2023-06-10T06:14:52;97947.56;;;28.43;48.55
10700;BME280;5401;41.986;21.452;2023-06-10T06:17:19;97945.91;;;29.03;47.75
10700;BME280;5401;41.986;21.452;2023-06-10T06:19:47;97950.44;;;29.63;47.25
10700;BME280;5401;41.986;21.452;2023-06-10T06:22:15;97944.25;;;30.02;46.49
10700;BME280;5401;41.986;21.452;2023-06-10T06:24:46;97941.19;;;30.54;45.60
10700;BME280;5401;41.986;21.452;2023-06-10T06:27:15;97942.63;;;31.02;45.57
10700;BME280;5401;41.986;21.452;2023-06-10T06:29:44;97951.94;;;31.37;45.14
10700;BME280;5401;41.986;21.452;2023-06-10T06:32:13;97958.09;;;31.61;44.44
10700;BME280;5401;41.986;21.452;2023-06-10T06:34:40;97945.72;;;31.70;44.36
10700;BME280;5401;41.986;21.452;2023-06-10T06:37:08;97949.19;;;31.67;43.92
10700;BME280;5401;41.986;21.452;2023-06-10T06:39:35;97934.34;;;31.45;43.93
10700;BME280;5401;41.986;21.452;2023-06-10T06:42:03;97935.59;;;31.63;43.97
10700;BME280;5401;41.986;21.452;2023-06-10T06:44:31;97943.38;;;31.57;44.69
10700;BME280;5401;41.986;21.452;2023-06-10T06:47:00;97939.19;;;31.78;43.66
10700;BME280;5401;41.986;21.452;2023-06-10T06:49:29;97940.63;;;32.03;44.27
10700;BME280;5401;41.986;21.452;2023-06-10T06:51:56;97938.56;;;32.00;43.95
10700;BME280;5401;41.986;21.452;2023-06-10T06:54:23;97946.69;;;31.78;43.70
10700;BME280;5401;41.986;21.452;2023-06-10T06:56:51;97926.53;;;31.20;44.37
10700;BME280;5401;41.986;21.452;2023-06-10T06:59:19;97919.69;;;30.87;45.02
10700;BME280;5401;41.986;21.452;2023-06-10T07:01:46;97939.28;;;30.82;44.89
10700;BME280;5401;41.986;21.452;2023-06-10T07:04:16;97936.31;;;31.02;44.52
10700;BME280;5401;41.986;21.452;2023-06-10T07:06:45;97940.28;;;30.89;44.91
10700;BME280;5401;41.986;21.452;2023-06-10T07:09:13;97936.50;;;30.82;44.96
10700;BME280;5401;41.986;21.452;2023-06-10T07:11:40;97914.22;;;30.90;45.21
10700;BME280;5401;41.986;21.452;2023-06-10T07:14:08;97921.34;;;31.18;45.10
10700;BME280;5401;41.986;21.452;2023-06-10T07:16:35;97911.16;;;31.49;44.14
10700;BME280;5401;41.986;21.452;2023-06-10T07:19:03;97911.78;;;31.89;43.86
10700;BME280;5401;41.986;21.452;2023-06-10T07:21:32;97922.66;;;32.12;43.92
10700;BME280;5401;41.986;21.452;2023-06-10T07:24:00;97912.13;;;32.02;43.54
10700;BME280;5401;41.986;21.452;2023-06-10T07:26:28;97913.19;;;31.98;43.39
10700;BME280;5401;41.986;21.452;2023-06-10T07:28:55;97906.97;;;32.20;43.30
10700;BME280;5401;41.986;21.452;2023-06-10T07:31:23;97905.88;;;32.39;43.10
10700;BME280;5401;41.986;21.452;2023-06-10T07:33:51;97911.00;;;32.75;43.07
10700;BME280;5401;41.986;21.452;2023-06-10T07:36:19;97897.84;;;32.53;42.73
10700;BME280;5401;41.986;21.452;2023-06-10T07:38:48;97902.84;;;31.80;43.64
10700;BME280;5401;41.986;21.452;2023-06-10T07:41:15;97900.38;;;31.17;44.70
10700;BME280;5401;41.986;21.452;2023-06-10T07:43:44;97892.25;;;31.24;45.00
10700;BME280;5401;41.986;21.452;2023-06-10T07:46:11;97890.56;;;31.20;44.47
10700;BME280;5401;41.986;21.452;2023-06-10T07:48:39;97888.91;;;30.76;45.38
10700;BME280;5401;41.986;21.452;2023-06-10T07:51:06;97887.59;;;30.70;45.02
10700;BME280;5401;41.986;21.452;2023-06-10T07:53:34;97885.34;;;30.76;45.41
10700;BME280;5401;41.986;21.452;2023-06-10T07:56:03;97879.75;;;31.15;44.67
10700;BME280;5401;41.986;21.452;2023-06-10T07:58:30;97874.28;;;31.45;44.13
10700;BME280;5401;41.986;21.452;2023-06-10T08:00:58;97870.97;;;31.55;43.97
10700;BME280;5401;41.986;21.452;2023-06-10T08:03:25;97867.44;;;32.04;44.06
10700;BME280;5401;41.986;21.452;2023-06-10T08:05:53;97863.56;;;32.42;43.28
10700;BME280;5401;41.986;21.452;2023-06-10T08:08:20;97848.38;;;32.74;42.90
10700;BME280;5401;41.986;21.452;2023-06-10T08:10:48;97851.53;;;32.91;42.69
10700;BME280;5401;41.986;21.452;2023-06-10T08:13:17;97863.75;;;33.09;42.28
10700;BME280;5401;41.986;21.452;2023-06-10T08:15:45;97851.97;;;33.15;42.08
10700;BME280;5401;41.986;21.452;2023-06-10T08:18:13;97848.16;;;33.23;41.76
10700;BME280;5401;41.986;21.452;2023-06-10T08:20:41;97849.38;;;33.04;42.03
10700;BME280;5401;41.986;21.452;2023-06-10T08:23:09;97851.84;;;33.08;41.87
10700;BME280;5401;41.986;21.452;2023-06-10T08:25:37;97853.13;;;32.92;41.98
10700;BME280;5401;41.986;21.452;2023-06-10T08:28:04;97853.28;;;32.62;41.92
10700;BME280;5401;41.986;21.452;2023-06-10T08:30:33;97849.66;;;32.24;42.82
10700;BME280;5401;41.986;21.452;2023-06-10T08:33:00;97839.88;;;32.11;42.92
10700;BME280;5401;41.986;21.452;2023-06-10T08:35:28;97852.59;;;32.31;42.92
10700;BME280;5401;41.986;21.452;2023-06-10T08:37:56;97832.66;;;32.40;41.90
10700;BME280;5401;41.986;21.452;2023-06-10T08:40:23;97847.75;;;32.28;42.31
10700;BME280;5401;41.986;21.452;2023-06-10T08:43:00;97833.97;;;32.31;42.10
10700;BME280;5401;41.986;21.452;2023-06-10T08:45:35;97838.28;;;32.29;41.84
10700;BME280;5401;41.986;21.452;2023-06-10T08:48:04;97826.47;;;32.32;41.86
10700;BME280;5401;41.986;21.452;2023-06-10T08:50:34;97830.06;;;32.70;41.29
10700;BME280;5401;41.986;21.452;2023-06-10T08:53:05;97825.88;;;32.98;40.78
10700;BME280;5401;41.986;21.452;2023-06-10T08:55:35;97830.72;;;33.23;40.69
10700;BME280;5401;41.986;21.452;2023-06-10T08:58:03;97832.66;;;33.41;40.70
10700;BME280;5401;41.986;21.452;2023-06-10T09:00:34;97827.31;;;33.55;40.42
10700;BME280;5401;41.986;21.452;2023-06-10T09:03:05;97823.66;;;33.51;40.41
10700;BME280;5401;41.986;21.452;2023-06-10T09:05:35;97811.59;;;33.40;40.50
10700;BME280;5401;41.986;21.452;2023-06-10T09:08:04;97795.28;;;33.16;40.39
10700;BME280;5401;41.986;21.452;2023-06-10T09:10:33;97813.41;;;32.70;40.32
10700;BME280;5401;41.986;21.452;2023-06-10T09:13:01;97813.63;;;32.05;41.16
10700;BME280;5401;41.986;21.452;2023-06-10T09:15:28;97804.56;;;31.89;41.43
10700;BME280;5401;41.986;21.452;2023-06-10T09:17:59;97807.63;;;32.03;40.91
10700;BME280;5401;41.986;21.452;2023-06-10T09:20:27;97804.94;;;32.06;40.75
10700;BME280;5401;41.986;21.452;2023-06-10T09:22:54;97803.63;;;32.00;41.16
10700;BME280;5401;41.986;21.452;2023-06-10T09:25:34;97801.22;;;31.99;41.11
10700;BME280;5401;41.986;21.452;2023-06-10T09:28:03;97795.75;;;32.02;40.70
10700;BME280;5401;41.986;21.452;2023-06-10T09:30:33;97797.00;;;32.24;40.16
10700;BME280;5401;41.986;21.452;2023-06-10T09:33:10;97792.75;;;32.30;40.75
10700;BME280;5401;41.986;21.452;2023-06-10T09:35:45;97782.22;;;32.16;40.88
10700;BME280;5401;41.986;21.452;2023-06-10T09:38:15;97753.75;;;32.19;40.45
10700;BME280;5401;41.986;21.452;2023-06-10T09:40:50;97770.91;;;32.43;40.31
10700;BME280;5401;41.986;21.452;2023-06-10T09:43:18;97757.06;;;32.43;39.82
10700;BME280;5401;41.986;21.452;2023-06-10T09:45:48;97746.31;;;32.61;39.68
10700;BME280;5401;41.986;21.452;2023-06-10T09:48:17;97765.59;;;32.35;40.29
10700;BME280;5401;41.986;21.452;2023-06-10T09:50:46;97770.41;;;32.57;39.67
10700;BME280;5401;41.986;21.452;2023-06-10T09:53:14;97745.56;;;32.64;39.58
10700;BME280;5401;41.986;21.452;2023-06-10T09:55:45;97764.03;;;32.97;39.07
10700;BME280;5401;41.986;21.452;2023-06-10T09:58:14;97765.09;;;33.34;39.06
10700;BME280;5401;41.986;21.452;2023-06-10T10:00:42;97757.03;;;33.29;38.60
10700;BME280;5401;41.986;21.452;2023-06-10T10:03:10;97742.94;;;33.15;38.76
10700;BME280;5401;41.986;21.452;2023-06-10T10:05:57;97737.81;;;33.39;38.22
10700;BME280;5401;41.986;21.452;2023-06-10T10:08:27;97753.72;;;33.68;38.35
10700;BME280;5401;41.986;21.452;2023-06-10T10:10:56;97759.31;;;33.97;38.08
10700;BME280;5401;41.986;21.452;2023-06-10T10:13:26;97747.59;;;33.81;37.96
10700;BME280;5401;41.986;21.452;2023-06-10T10:15:56;97735.94;;;34.01;37.76
10700;BME280;5401;41.986;21.452;2023-06-10T10:18:29;97745.16;;;34.38;37.55
10700;BME280;5401;41.986;21.452;2023-06-10T10:21:02;97717.19;;;34.56;37.30
10700;BME280;5401;41.986;21.452;2023-06-10T10:23:39;97722.19;;;34.80;36.72
10700;BME280;5401;41.986;21.452;2023-06-10T10:26:10;97721.16;;;34.95;36.92
10700;BME280;5401;41.986;21.452;2023-06-10T10:28:44;97716.16;;;35.11;36.47
10700;BME280;5401;41.986;21.452;2023-06-10T10:31:16;97712.28;;;35.22;36.57
10700;BME280;5401;41.986;21.452;2023-06-10T10:33:52;97703.91;;;35.22;36.22
10700;BME280;5401;41.986;21.452;2023-06-10T10:36:27;97723.53;;;34.96;36.05
10700;BME280;5401;41.986;21.452;2023-06-10T10:38:55;97709.38;;;34.33;36.84
10700;BME280;5401;41.986;21.452;2023-06-10T10:41:24;97717.22;;;34.27;36.86
10700;BME280;5401;41.986;21.452;2023-06-10T10:43:54;97704.34;;;34.13;36.65
10700;BME280;5401;41.986;21.452;2023-06-10T10:46:23;97702.19;;;33.19;36.90
10700;BME280;5401;41.986;21.452;2023-06-10T10:48:53;97711.66;;;32.51;37.59
10700;BME280;5401;41.986;21.452;2023-06-10T10:51:22;97689.69;;;31.83;38.14
10700;BME280;5401;41.986;21.452;2023-06-10T10:54:12;97697.63;;;31.85;38.15
10700;BME280;5401;41.986;21.452;2023-06-10T10:57:15;97686.63;;;31.69;38.25
10700;BME280;5401;41.986;21.452;2023-06-10T10:59:52;97687.16;;;31.26;39.20
10700;BME280;5401;41.986;21.452;2023-06-10T11:02:40;97693.16;;;31.12;39.38
10700;BME280;5401;41.986;21.452;2023-06-10T11:05:10;97692.34;;;31.27;39.37
10700;BME280;5401;41.986;21.452;2023-06-10T11:07:38;97663.16;;;31.29;39.20
10700;BME280;5401;41.986;21.452;2023-06-10T11:10:10;97677.25;;;31.59;39.18
10700;BME280;5401;41.986;21.452;2023-06-10T11:12:49;97674.13;;;31.79;39.12
10700;BME280;5401;41.986;21.452;2023-06-10T11:15:22;97671.97;;;32.06;38.50
10700;BME280;5401;41.986;21.452;2023-06-10T11:18:11;97650.31;;;32.12;38.54
10700;BME280;5401;41.986;21.452;2023-06-10T11:20:56;97659.47;;;32.35;38.20
10700;BME280;5401;41.986;21.452;2023-06-10T11:23:38;97667.38;;;32.55;38.25
10700;BME280;5401;41.986;21.452;2023-06-10T11:26:13;97644.69;;;32.49;38.22
10700;BME280;5401;41.986;21.452;2023-06-10T11:29:01;97628.31;;;32.00;38.09
10700;BME280;5401;41.986;21.452;2023-06-10T11:31:30;97644.84;;;31.78;38.85
10700;BME280;5401;41.986;21.452;2023-06-10T11:34:00;97642.09;;;31.97;38.41
10700;BME280;5401;41.986;21.452;2023-06-10T11:36:29;97644.16;;;32.40;37.93
10700;BME280;5401;41.986;21.452;2023-06-10T11:38:58;97637.72;;;32.81;37.53
10700;BME280;5401;41.986;21.452;2023-06-10T11:41:29;97630.53;;;33.02;37.25
10700;BME280;5401;41.986;21.452;2023-06-10T11:44:00;97637.88;;;33.39;36.75
10700;BME280;5401;41.986;21.452;2023-06-10T11:46:28;97634.66;;;33.66;36.37
10700;BME280;5401;41.986;21.452;2023-06-10T11:48:58;97628.50;;;33.80;36.37
10700;BME280;5401;41.986;21.452;2023-06-10T11:51:27;97617.06;;;33.84;36.07
10700;BME280;5401;41.986;21.452;2023-06-10T11:53:56;97632.91;;;34.17;36.19
10700;BME280;5401;41.986;21.452;2023-06-10T11:56:24;97620.38;;;33.97;35.93
10700;BME280;5401;41.986;21.452;2023-06-10T11:58:56;97621.94;;;33.94;35.97
10700;BME280;5401;41.986;21.452;2023-06-10T12:01:25;97620.28;;;33.57;36.27
10700;BME280;5401;41.986;21.452;2023-06-10T12:03:57;97614.91;;;33.42;36.54
10700;BME280;5401;41.986;21.452;2023-06-10T12:06:25;97607.28;;;33.10;36.29
10700;BME280;5401;41.986;21.452;2023-06-10T12:08:54;97611.81;;;32.96;36.77
10700;BME280;5401;41.986;21.452;2023-06-10T12:11:23;97631.44;;;32.84;36.59
10700;BME280;5401;41.986;21.452;2023-06-10T12:13:50;97610.53;;;32.90;36.75
10700;BME280;5401;41.986;21.452;2023-06-10T12:16:20;97610.38;;;33.05;36.56
10700;BME280;5401;41.986;21.452;2023-06-10T12:18:48;97619.66;;;33.16;36.47
10700;BME280;5401;41.986;21.452;2023-06-10T12:21:17;97613.16;;;32.57;36.44
10700;BME280;5401;41.986;21.452;2023-06-10T12:24:03;97594.88;;;31.52;37.61
10700;BME280;5401;41.986;21.452;2023-06-10T12:26:39;97590.75;;;31.09;38.26
10700;BME280;5401;41.986;21.452;2023-06-10T12:29:27;97594.28;;;30.91;39.05
10700;BME280;5401;41.986;21.452;2023-06-10T12:32:01;97590.47;;;30.64;39.21
10700;BME280;5401;41.986;21.452;2023-06-10T12:34:32;97580.31;;;30.38;39.88
10700;BME280;5401;41.986;21.452;2023-06-10T12:37:00;97580.09;;;30.16;39.61
10700;BME280;5401;41.986;21.452;2023-06-10T12:39:29;97596.66;;;30.16;40.14
10700;BME280;5401;41.986;21.452;2023-06-10T12:41:57;97593.97;;;29.88;40.50
10700;BME280;5401;41.986;21.452;2023-06-10T12:44:32;97588.81;;;29.60;41.12
10700;BME280;5401;41.986;21.452;2023-06-10T12:47:07;97586.91;;;29.48;41.53
10700;BME280;5401;41.986;21.452;2023-06-10T12:49:35;97599.84;;;29.60;41.77
10700;BME280;5401;41.986;21.452;2023-06-10T12:52:03;97577.09;;;29.51;41.53
10700;BME280;5401;41.986;21.452;2023-06-10T12:54:32;97596.75;;;29.61;41.39
10700;BME280;5401;41.986;21.452;2023-06-10T12:57:00;97602.59;;;29.60;41.85
10700;BME280;5401;41.986;21.452;2023-06-10T12:59:28;97596.75;;;29.61;41.41
10700;BME280;5401;41.986;21.452;2023-06-10T13:01:58;97606.81;;;29.42;42.10
10700;BME280;5401;41.986;21.452;2023-06-10T13:04:27;97608.25;;;29.24;42.09
10700;BME280;5401;41.986;21.452;2023-06-10T13:06:55;97589.56;;;28.94;42.50
10700;BME280;5401;41.986;21.452;2023-06-10T13:09:25;97607.88;;;28.75;42.82
10700;BME280;5401;41.986;21.452;2023-06-10T13:11:54;97574.78;;;28.28;43.16